Terminal Aerodrome Forecast
Issued by NWS Portland, OR

Home | Current Version | Previous Version | Text Only | Print | Product List | Glossary On
Versions: 1 2 3 4 5 6 7 8 9 10 11 12 13 14 15 16 17 18 19 20 21 22 23 24 25 26 27 28 29 30
000
FTUS46 KPQR 301130
TAFSLE
TAF
KSLE 301130Z 3012/3112 17006KT P6SM BKN045 OVC060
      TEMPO 3012/3014 -SHRA
     FM301600 16004KT P6SM VCSH SCT025 BKN060
     FM302200 23006KT P6SM VCSH BKN035 OVC050
     FM310400 25007KT P6SM BKN060=

USA.gov is the U.S. government's official web portal to all federal, state and local government web resources and services.